Coalby, Colorado
Current Conditions -  °F | °C
As of 11:35 PM on Sunday 25 Jan 2015 (Local Time) from KAJZ Reporting Station
Clear Clear  
Wind Chill: 30°   Ceiling: Unl
Heat Index: 30°   Visibility: 10mi
Dew Point: 22°   Wind: 0mph
Humidity: 73%   Direction: NA
Pressure: 30.39"   Gusts: NA
Location:  38.9793°N, 107.894°W
Report Text: KAJZ 260635Z AUTO 00000KT 10SM CLR M01/M05 A3039 RMK AO2 T10121054
Loading
Personal Weather Stations






























Interactive Weather Map New forecast layout! Learn more

10-Day Weather Forecast

Advertisements
Track Severe Weather on mobile